Time;durP1;ratioP1;P1;durP2;ratioP2;P2;SDS_P1;SDS_P2;PMS_P1;PMS_P2;Temp;Humidity;BMP_temperature;BMP_pressure;BME280_temperature;BME280_humidity;BME280_pressure;Samples;Min_cycle;Max_cycle;Signal;HPM_P1;HPM_P2
2022/07/12 00:01:18;;;;;;;3.90;3.40;;;;;;;;;;5073867;28;20529;-77
2022/07/12 00:03:46;;;;;;;4.30;3.60;;;;;;;;;;5076157;28;20434;-77
2022/07/12 00:06:12;;;;;;;3.85;3.55;;;;;;;;;;5074382;28;20421;-77
2022/07/12 00:08:38;;;;;;;4.28;3.63;;;;;;;;;;5074981;28;20818;-77
2022/07/12 00:11:05;;;;;;;5.22;3.65;;;;;;;;;;5074645;28;20426;-77
2022/07/12 00:13:31;;;;;;;5.72;3.50;;;;;;;;;;5077276;28;20454;-77
2022/07/12 00:15:58;;;;;;;4.05;3.40;;;;;;;;;;5076567;28;20497;-77
2022/07/12 00:18:24;;;;;;;6.30;3.90;;;;;;;;;;5075705;28;20471;-77
2022/07/12 00:20:52;;;;;;;4.55;3.92;;;;;;;;;;5075858;28;20425;-77
2022/07/12 00:23:18;;;;;;;5.93;3.87;;;;;;;;;;5074105;28;20793;-77
2022/07/12 00:25:44;;;;;;;4.63;3.70;;;;;;;;;;5073764;28;20437;-77
2022/07/12 00:28:11;;;;;;;3.58;3.25;;;;;;;;;;5076589;28;20915;-77
2022/07/12 00:30:37;;;;;;;4.28;3.88;;;;;;;;;;5076143;22;20416;-76
2022/07/12 00:33:03;;;;;;;4.88;3.60;;;;;;;;;;5055682;28;20429;-76
2022/07/12 00:35:29;;;;;;;3.50;3.20;;;;;;;;;;5056045;28;20433;-76
2022/07/12 00:37:57;;;;;;;5.10;3.90;;;;;;;;;;5057057;28;20430;-76
2022/07/12 00:40:23;;;;;;;4.47;3.78;;;;;;;;;;5045175;28;20421;-76
2022/07/12 00:42:50;;;;;;;4.07;3.35;;;;;;;;;;5038857;28;20491;-76
2022/07/12 00:45:16;;;;;;;3.50;3.20;;;;;;;;;;5038726;28;20425;-76
2022/07/12 00:47:44;;;;;;;6.50;4.10;;;;;;;;;;5039031;28;20789;-76
2022/07/12 00:50:11;;;;;;;5.95;4.13;;;;;;;;;;5039417;28;20431;-76
2022/07/12 00:52:38;;;;;;;5.80;4.57;;;;;;;;;;5039511;28;20805;-77
2022/07/12 00:55:06;;;;;;;4.70;4.30;;;;;;;;;;5038956;28;20462;-76
2022/07/12 00:57:33;;;;;;;5.10;4.10;;;;;;;;;;5038292;28;20500;-76
2022/07/12 00:59:59;;;;;;;4.82;4.00;;;;;;;;;;5038692;28;20436;-76
2022/07/12 01:02:25;;;;;;;5.35;4.65;;;;;;;;;;5039033;28;20440;-76
2022/07/12 01:04:52;;;;;;;5.30;4.00;;;;;;;;;;5038192;28;20406;-76
2022/07/12 01:07:18;;;;;;;5.80;4.00;;;;;;;;;;5039021;28;20425;-76
2022/07/12 01:09:45;;;;;;;5.63;4.50;;;;;;;;;;5039197;28;20434;-76
2022/07/12 01:12:14;;;;;;;6.07;4.80;;;;;;;;;;5037653;28;20429;-76
2022/07/12 01:14:40;;;;;;;6.57;4.00;;;;;;;;;;5036169;28;20431;-76
2022/07/12 01:17:07;;;;;;;4.30;3.90;;;;;;;;;;5037605;28;20425;-76
2022/07/12 01:19:35;;;;;;;4.90;4.20;;;;;;;;;;5038650;28;20425;-76
2022/07/12 01:22:02;;;;;;;5.03;4.00;;;;;;;;;;5036895;28;20801;-76
2022/07/12 01:24:29;;;;;;;5.88;4.90;;;;;;;;;;5037875;28;20428;-76
2022/07/12 01:26:56;;;;;;;3.88;3.47;;;;;;;;;;5037763;28;20435;-76
2022/07/12 01:29:22;;;;;;;4.45;4.05;;;;;;;;;;5038390;28;20429;-76
2022/07/12 01:31:49;;;;;;;4.40;4.00;;;;;;;;;;5036710;28;20423;-77
2022/07/12 01:34:15;;;;;;;6.18;4.50;;;;;;;;;;5038883;28;20462;-76
2022/07/12 01:36:42;;;;;;;5.05;4.18;;;;;;;;;;5037601;28;20426;-76
2022/07/12 01:39:08;;;;;;;6.13;4.40;;;;;;;;;;5038342;28;20425;-76
2022/07/12 01:41:36;;;;;;;6.00;4.20;;;;;;;;;;5038554;28;20799;-76
2022/07/12 01:44:02;;;;;;;4.55;4.10;;;;;;;;;;5034999;28;20437;-74
2022/07/12 01:46:28;;;;;;;4.93;4.25;;;;;;;;;;5037731;28;20482;-74
2022/07/12 01:48:55;;;;;;;5.40;4.90;;;;;;;;;;5038247;28;20453;-73
2022/07/12 01:51:21;;;;;;;5.60;4.50;;;;;;;;;;5034317;28;20435;-73
2022/07/12 01:53:47;;;;;;;4.20;3.80;;;;;;;;;;5036466;28;20930;-74
2022/07/12 01:56:14;;;;;;;4.00;3.60;;;;;;;;;;5037559;28;20508;-74
2022/07/12 01:58:42;;;;;;;4.00;3.25;;;;;;;;;;5037830;28;20444;-74
2022/07/12 02:01:09;;;;;;;3.50;3.20;;;;;;;;;;5037788;28;20426;-74
2022/07/12 02:03:36;;;;;;;4.50;3.40;;;;;;;;;;5038007;28;20425;-74
2022/07/12 02:06:03;;;;;;;4.13;3.72;;;;;;;;;;5037391;28;20423;-74
2022/07/12 02:08:29;;;;;;;5.03;4.40;;;;;;;;;;5038011;28;20434;-74
2022/07/12 02:10:56;;;;;;;4.78;4.03;;;;;;;;;;5036858;28;20435;-74
2022/07/12 02:13:22;;;;;;;4.40;4.00;;;;;;;;;;5036274;28;20788;-74
2022/07/12 02:15:50;;;;;;;5.50;4.60;;;;;;;;;;5035333;28;20427;-74
2022/07/12 02:18:16;;;;;;;5.25;4.40;;;;;;;;;;5037331;28;20632;-74
2022/07/12 02:20:42;;;;;;;4.28;3.88;;;;;;;;;;5037562;28;20425;-74
2022/07/12 02:23:09;;;;;;;4.90;3.80;;;;;;;;;;5037333;28;20429;-74
2022/07/12 02:25:35;;;;;;;5.70;3.50;;;;;;;;;;5037680;28;20436;-74
2022/07/12 02:28:01;;;;;;;3.10;2.90;;;;;;;;;;5038935;28;20434;-74
2022/07/12 02:30:28;;;;;;;3.92;3.53;;;;;;;;;;5035726;28;20786;-74
2022/07/12 02:32:55;;;;;;;4.07;3.45;;;;;;;;;;5038119;28;20434;-74
2022/07/12 02:35:22;;;;;;;4.28;3.97;;;;;;;;;;5041264;28;20932;-73
2022/07/12 02:37:48;;;;;;;4.00;3.70;;;;;;;;;;5041569;28;20433;-74
2022/07/12 02:42:58;;;;;;;3.70;3.20;;;;;;;;;;5041391;28;20552;-74
2022/07/12 02:45:25;;;;;;;3.75;3.33;;;;;;;;;;5041328;28;20421;-74
2022/07/12 02:47:51;;;;;;;4.70;3.40;;;;;;;;;;5041588;28;20433;-74
2022/07/12 02:50:19;;;;;;;3.30;2.80;;;;;;;;;;5041042;28;20453;-74
2022/07/12 02:52:45;;;;;;;3.80;3.50;;;;;;;;;;5040104;28;20447;-74
2022/07/12 02:55:12;;;;;;;3.80;3.28;;;;;;;;;;5040310;28;20434;-76
2022/07/12 02:57:38;;;;;;;3.40;3.10;;;;;;;;;;5039789;28;20799;-76
2022/07/12 03:00:06;;;;;;;2.90;2.70;;;;;;;;;;5042514;28;20415;-76
2022/07/12 03:02:33;;;;;;;4.13;3.30;;;;;;;;;;5040752;28;20462;-76
2022/07/12 03:04:59;;;;;;;3.30;3.00;;;;;;;;;;5040537;28;20421;-76
2022/07/12 03:07:26;;;;;;;5.30;3.30;;;;;;;;;;5040609;28;20433;-76
2022/07/12 03:09:53;;;;;;;3.20;2.90;;;;;;;;;;5041165;28;20413;-76
2022/07/12 03:12:19;;;;;;;3.10;2.80;;;;;;;;;;5041178;28;20787;-76
2022/07/12 03:14:45;;;;;;;3.80;2.83;;;;;;;;;;5040538;28;20427;-76
2022/07/12 03:17:12;;;;;;;3.55;3.00;;;;;;;;;;5040604;28;20436;-76
2022/07/12 03:19:38;;;;;;;5.13;3.45;;;;;;;;;;5039082;28;20427;-76
2022/07/12 03:22:04;;;;;;;3.30;2.90;;;;;;;;;;5039355;28;20444;-76
2022/07/12 03:24:32;;;;;;;2.95;2.75;;;;;;;;;;5038445;28;20903;-76
2022/07/12 03:26:59;;;;;;;3.50;3.20;;;;;;;;;;5041013;28;20431;-76
2022/07/12 03:29:26;;;;;;;3.25;2.95;;;;;;;;;;5040223;28;20436;-76
2022/07/12 03:31:52;;;;;;;3.85;3.42;;;;;;;;;;5037788;28;20460;-76
2022/07/12 03:34:18;;;;;;;3.80;3.00;;;;;;;;;;5039776;28;20855;-76
2022/07/12 03:36:45;;;;;;;4.00;3.30;;;;;;;;;;5040218;28;20428;-76
2022/07/12 03:39:11;;;;;;;4.47;3.70;;;;;;;;;;5038638;28;20930;-76
2022/07/12 03:41:38;;;;;;;4.05;3.63;;;;;;;;;;5038580;28;20438;-76
2022/07/12 03:44:06;;;;;;;3.35;3.05;;;;;;;;;;5039495;28;20429;-76
2022/07/12 03:46:33;;;;;;;3.30;3.00;;;;;;;;;;5039876;28;20837;-76
2022/07/12 03:48:59;;;;;;;3.58;3.28;;;;;;;;;;5038316;28;20492;-76
2022/07/12 03:51:25;;;;;;;4.00;3.63;;;;;;;;;;5040280;28;20431;-76
2022/07/12 03:53:52;;;;;;;3.90;3.40;;;;;;;;;;5039607;28;20429;-76
2022/07/12 03:58:59;;;;;;;3.20;3.00;;;;;;;;;;5039487;28;20420;-76
2022/07/12 04:01:26;;;;;;;4.70;3.20;;;;;;;;;;5040074;28;20427;-76
2022/07/12 04:03:53;;;;;;;3.70;3.35;;;;;;;;;;5039623;28;20423;-76
2022/07/12 04:06:19;;;;;;;4.18;3.35;;;;;;;;;;5038961;28;20423;-76
2022/07/12 04:08:45;;;;;;;6.15;3.80;;;;;;;;;;5040340;28;20439;-76
2022/07/12 04:11:12;;;;;;;4.70;3.20;;;;;;;;;;5038158;28;20435;-76
2022/07/12 04:13:38;;;;;;;3.50;3.20;;;;;;;;;;5039533;28;20429;-76
2022/07/12 04:16:05;;;;;;;4.22;3.00;;;;;;;;;;5038890;28;20437;-76
2022/07/12 04:18:33;;;;;;;3.42;3.00;;;;;;;;;;5040667;28;20762;-76
2022/07/12 04:20:59;;;;;;;4.20;3.75;;;;;;;;;;5040704;28;20419;-76
2022/07/12 04:23:25;;;;;;;3.60;3.30;;;;;;;;;;5039224;28;20431;-76
2022/07/12 04:25:52;;;;;;;3.92;3.10;;;;;;;;;;5038168;28;20943;-76
2022/07/12 04:28:18;;;;;;;3.20;2.80;;;;;;;;;;5040344;28;20433;-76
2022/07/12 04:30:46;;;;;;;3.30;3.00;;;;;;;;;;5039183;28;20421;-76
2022/07/12 04:33:12;;;;;;;2.80;2.60;;;;;;;;;;5038430;28;20454;-76
2022/07/12 04:35:40;;;;;;;3.00;2.70;;;;;;;;;;5037774;28;20438;-76
2022/07/12 04:38:08;;;;;;;3.70;2.70;;;;;;;;;;5039596;28;20435;-76
2022/07/12 04:40:34;;;;;;;2.70;2.50;;;;;;;;;;5037523;28;20421;-76
2022/07/12 04:43:00;;;;;;;3.40;3.10;;;;;;;;;;5039691;28;20424;-76
2022/07/12 04:45:27;;;;;;;3.00;2.70;;;;;;;;;;5040124;28;20456;-76
2022/07/12 04:47:53;;;;;;;2.35;2.00;;;;;;;;;;5037740;28;20435;-76
2022/07/12 04:50:19;;;;;;;2.50;2.30;;;;;;;;;;5035805;28;20428;-76
2022/07/12 04:52:47;;;;;;;2.70;2.50;;;;;;;;;;5037612;28;20425;-76
2022/07/12 04:55:13;;;;;;;2.50;2.30;;;;;;;;;;5037061;28;20524;-76
2022/07/12 04:57:39;;;;;;;2.65;2.28;;;;;;;;;;5037907;28;20429;-76
2022/07/12 05:00:08;;;;;;;3.60;2.67;;;;;;;;;;5039241;28;20431;-76
2022/07/12 05:02:34;;;;;;;2.50;2.20;;;;;;;;;;5039153;28;20438;-76
2022/07/12 05:05:00;;;;;;;2.65;2.45;;;;;;;;;;5038636;28;20425;-76
2022/07/12 05:07:27;;;;;;;3.53;2.60;;;;;;;;;;5039664;28;20433;-76
2022/07/12 05:09:54;;;;;;;2.40;2.20;;;;;;;;;;5036429;28;20898;-76
2022/07/12 05:12:21;;;;;;;2.80;2.60;;;;;;;;;;5037256;28;20439;-76
2022/07/12 05:14:47;;;;;;;2.70;2.20;;;;;;;;;;5036349;28;20438;-77
2022/07/12 05:17:13;;;;;;;2.60;2.40;;;;;;;;;;5039029;28;20433;-76
2022/07/12 05:19:40;;;;;;;2.77;2.57;;;;;;;;;;5036686;28;20825;-76
2022/07/12 05:22:06;;;;;;;2.50;2.30;;;;;;;;;;5039577;28;20430;-76
2022/07/12 05:24:32;;;;;;;2.80;2.60;;;;;;;;;;5036886;28;20435;-76
2022/07/12 05:27:00;;;;;;;3.00;2.80;;;;;;;;;;5038432;28;20423;-76
2022/07/12 05:29:26;;;;;;;3.22;3.03;;;;;;;;;;5036927;28;20434;-76
2022/07/12 05:31:55;;;;;;;2.70;2.50;;;;;;;;;;5037226;28;20427;-76
2022/07/12 05:34:22;;;;;;;2.60;2.40;;;;;;;;;;5038137;28;20532;-76
2022/07/12 05:36:48;;;;;;;3.20;2.90;;;;;;;;;;5035232;28;20434;-76
2022/07/12 05:39:14;;;;;;;3.70;3.40;;;;;;;;;;5037150;28;20436;-76
2022/07/12 05:41:41;;;;;;;2.90;2.70;;;;;;;;;;5037840;28;20528;-76
2022/07/12 05:44:08;;;;;;;2.85;2.63;;;;;;;;;;5039599;28;20444;-76
2022/07/12 05:46:36;;;;;;;3.60;3.30;;;;;;;;;;5036514;28;20426;-76
2022/07/12 05:49:02;;;;;;;3.25;2.60;;;;;;;;;;5038582;28;20561;-76
2022/07/12 05:54:12;;;;;;;3.00;2.70;;;;;;;;;;5038903;28;20473;-76
2022/07/12 05:56:39;;;;;;;3.40;3.10;;;;;;;;;;5038829;28;20442;-77
2022/07/12 05:59:05;;;;;;;4.53;2.85;;;;;;;;;;5039314;28;20415;-76
2022/07/12 06:01:33;;;;;;;3.30;3.00;;;;;;;;;;5036542;28;20792;-76
2022/07/12 06:03:59;;;;;;;3.10;2.80;;;;;;;;;;5037568;28;20435;-76
2022/07/12 06:06:25;;;;;;;3.10;2.80;;;;;;;;;;5038260;28;20432;-76
2022/07/12 06:08:51;;;;;;;2.90;2.70;;;;;;;;;;5039387;28;20421;-76
2022/07/12 06:11:18;;;;;;;3.13;2.90;;;;;;;;;;5038420;28;20422;-76
2022/07/12 06:13:44;;;;;;;3.50;3.20;;;;;;;;;;5036963;28;20413;-76
2022/07/12 06:16:11;;;;;;;3.20;2.85;;;;;;;;;;5038455;28;20444;-73
2022/07/12 06:18:39;;;;;;;3.27;2.93;;;;;;;;;;5038864;28;20446;-73
2022/07/12 06:21:05;;;;;;;3.17;2.97;;;;;;;;;;5038849;28;20792;-73
2022/07/12 06:23:31;;;;;;;2.90;2.70;;;;;;;;;;5039812;28;20424;-74
2022/07/12 06:25:57;;;;;;;3.25;2.95;;;;;;;;;;5039327;28;20867;-74
2022/07/12 06:28:24;;;;;;;5.03;4.60;;;;;;;;;;5037812;28;20416;-73
2022/07/12 06:30:50;;;;;;;5.13;4.72;;;;;;;;;;5073090;22;20407;-76
2022/07/12 06:33:16;;;;;;;5.85;5.35;;;;;;;;;;5073874;28;20438;-75
2022/07/12 06:35:44;;;;;;;6.00;5.50;;;;;;;;;;5074247;28;20532;-77
2022/07/12 06:38:10;;;;;;;6.72;6.07;;;;;;;;;;5076233;28;20414;-77
2022/07/12 06:40:37;;;;;;;6.80;6.20;;;;;;;;;;5075397;28;20503;-77
2022/07/12 06:43:04;;;;;;;6.55;5.95;;;;;;;;;;5074623;28;20765;-76
2022/07/12 06:45:30;;;;;;;6.45;5.85;;;;;;;;;;5075339;28;20417;-76
2022/07/12 06:47:56;;;;;;;6.50;6.00;;;;;;;;;;5074903;28;20427;-76
2022/07/12 06:50:23;;;;;;;7.03;6.43;;;;;;;;;;5075919;28;20494;-77
2022/07/12 06:52:50;;;;;;;6.40;5.90;;;;;;;;;;5077680;28;20412;-77
2022/07/12 06:55:17;;;;;;;6.28;5.78;;;;;;;;;;5075150;28;20509;-76
2022/07/12 06:57:43;;;;;;;7.10;6.40;;;;;;;;;;5075855;28;20445;-77
2022/07/12 07:00:10;;;;;;;6.87;6.27;;;;;;;;;;5075603;28;20777;-77
2022/07/12 07:02:36;;;;;;;7.15;6.55;;;;;;;;;;5074938;28;20767;-77
2022/07/12 07:05:02;;;;;;;6.40;5.80;;;;;;;;;;5075137;28;20406;-77
2022/07/12 07:07:29;;;;;;;6.82;6.22;;;;;;;;;;5076502;28;20409;-77
2022/07/12 07:09:56;;;;;;;6.23;5.73;;;;;;;;;;5075117;28;20413;-76
2022/07/12 07:12:22;;;;;;;6.72;6.13;;;;;;;;;;5077025;28;20918;-77
2022/07/12 07:14:49;;;;;;;6.28;5.78;;;;;;;;;;5074509;28;20400;-77
2022/07/12 07:17:17;;;;;;;6.10;5.60;;;;;;;;;;5075695;28;20435;-77
2022/07/12 07:19:43;;;;;;;6.57;6.00;;;;;;;;;;5076814;28;20419;-77
2022/07/12 07:22:09;;;;;;;6.00;5.50;;;;;;;;;;5080196;28;20413;-77
2022/07/12 07:24:36;;;;;;;6.07;5.47;;;;;;;;;;5079309;28;20429;-77
2022/07/12 07:27:04;;;;;;;5.97;5.47;;;;;;;;;;5078223;28;20437;-76
2022/07/12 07:32:14;;;;;;;5.80;5.30;;;;;;;;;;5077386;28;20468;-77
2022/07/12 07:34:41;;;;;;;5.90;5.37;;;;;;;;;;5079445;28;20770;-77
2022/07/12 07:37:08;;;;;;;6.60;6.00;;;;;;;;;;5079392;28;20427;-77
2022/07/12 07:39:35;;;;;;;6.10;5.50;;;;;;;;;;5078039;28;20488;-77
2022/07/12 07:42:01;;;;;;;5.43;4.93;;;;;;;;;;5078411;28;20418;-77
2022/07/12 07:44:29;;;;;;;6.30;5.80;;;;;;;;;;5074394;28;20421;-77
2022/07/12 07:46:55;;;;;;;5.90;5.40;;;;;;;;;;5074838;28;20422;-77
2022/07/12 07:49:22;;;;;;;6.30;5.68;;;;;;;;;;5078610;28;20431;-77
2022/07/12 07:51:48;;;;;;;6.30;5.70;;;;;;;;;;5078800;28;20425;-77
2022/07/12 07:54:14;;;;;;;6.10;5.60;;;;;;;;;;5076066;28;20423;-77
2022/07/12 07:56:41;;;;;;;6.25;5.65;;;;;;;;;;5077652;28;20458;-76
2022/07/12 07:59:08;;;;;;;5.20;4.70;;;;;;;;;;5078813;28;20428;-77
2022/07/12 08:01:46;;;;;;;5.60;4.40;;;;;;;;;;5077752;28;20475;-77
2022/07/12 08:04:12;;;;;;;5.40;4.57;;;;;;;;;;5078729;28;20420;-77
2022/07/12 08:06:38;;;;;;;5.57;5.07;;;;;;;;;;5077967;28;20419;-77
2022/07/12 08:09:05;;;;;;;4.60;4.20;;;;;;;;;;5078776;28;20416;-77
2022/07/12 08:11:31;;;;;;;3.90;3.60;;;;;;;;;;5077648;28;20454;-77
2022/07/12 08:13:58;;;;;;;4.50;3.88;;;;;;;;;;5071723;28;20809;-77
2022/07/12 08:16:24;;;;;;;4.07;3.78;;;;;;;;;;5078251;28;20753;-77
2022/07/12 08:18:52;;;;;;;3.25;2.97;;;;;;;;;;5077671;28;20436;-77
2022/07/12 08:21:18;;;;;;;3.42;2.97;;;;;;;;;;5078206;28;20416;-77
2022/07/12 08:23:44;;;;;;;3.67;3.38;;;;;;;;;;5078155;28;20758;-77
2022/07/12 08:26:11;;;;;;;2.80;2.60;;;;;;;;;;5076918;28;20430;-77
2022/07/12 08:28:37;;;;;;;2.80;2.60;;;;;;;;;;5077708;28;20431;-76
2022/07/12 08:31:04;;;;;;;3.42;3.10;;;;;;;;;;5078010;28;20924;-77
2022/07/12 08:33:30;;;;;;;3.15;2.88;;;;;;;;;;5077082;28;20417;-77
2022/07/12 08:35:57;;;;;;;4.18;3.15;;;;;;;;;;5077401;28;20487;-77
2022/07/12 08:38:24;;;;;;;3.03;2.70;;;;;;;;;;5078027;28;20414;-77
2022/07/12 08:40:50;;;;;;;3.83;2.92;;;;;;;;;;5073392;28;20429;-77
2022/07/12 08:43:17;;;;;;;3.40;3.10;;;;;;;;;;5075260;28;20450;-75
2022/07/12 08:45:43;;;;;;;2.90;2.70;;;;;;;;;;5077206;28;20422;-77
2022/07/12 08:48:09;;;;;;;3.63;2.63;;;;;;;;;;5074558;28;20427;-77
2022/07/12 08:50:36;;;;;;;3.30;2.80;;;;;;;;;;5077959;28;20419;-77
2022/07/12 08:53:10;;;;;;;3.37;2.73;;;;;;;;;;5077084;28;20421;-77
2022/07/12 08:55:37;;;;;;;3.50;3.20;;;;;;;;;;5078272;28;20413;-77
2022/07/12 08:58:06;;;;;;;3.70;3.40;;;;;;;;;;5074309;28;20490;-77
2022/07/12 09:00:32;;;;;;;3.72;2.97;;;;;;;;;;5078503;28;20929;-77
2022/07/12 09:02:59;;;;;;;3.28;2.40;;;;;;;;;;5074614;28;20776;-77
2022/07/12 09:05:27;;;;;;;3.42;3.13;;;;;;;;;;5078718;28;20422;-77
2022/07/12 09:08:02;;;;;;;3.78;3.28;;;;;;;;;;5077667;28;20419;-77
2022/07/12 09:10:30;;;;;;;4.05;3.00;;;;;;;;;;5078833;28;20425;-78
2022/07/12 09:12:56;;;;;;;3.60;3.30;;;;;;;;;;5077120;28;20422;-75
2022/07/12 09:15:23;;;;;;;3.15;2.90;;;;;;;;;;5075896;28;20804;-77
2022/07/12 09:17:56;;;;;;;3.38;3.08;;;;;;;;;;5077256;28;20419;-76
2022/07/12 09:20:24;;;;;;;3.42;3.08;;;;;;;;;;5076319;28;20519;-77
2022/07/12 09:22:54;;;;;;;3.30;3.00;;;;;;;;;;5076565;28;20475;-77
2022/07/12 09:25:20;;;;;;;2.93;2.70;;;;;;;;;;5077587;28;20438;-77
2022/07/12 09:27:55;;;;;;;3.53;3.22;;;;;;;;;;5077414;28;20417;-77
2022/07/12 09:30:23;;;;;;;4.15;3.60;;;;;;;;;;5077130;28;20425;-77
2022/07/12 09:38:26;;;;;;;3.50;3.20;;;;;;;;;;5077122;28;20481;-77
2022/07/12 09:40:54;;;;;;;3.50;3.17;;;;;;;;;;5077807;28;20411;-77
2022/07/12 09:43:22;;;;;;;3.50;3.20;;;;;;;;;;5076097;28;20419;-77
2022/07/12 09:45:49;;;;;;;3.88;3.47;;;;;;;;;;5077677;28;20442;-77
2022/07/12 09:48:16;;;;;;;5.32;3.03;;;;;;;;;;5072004;28;20920;-77
2022/07/12 09:50:46;;;;;;;3.53;3.22;;;;;;;;;;5077459;28;20419;-77
2022/07/12 09:53:15;;;;;;;4.00;3.30;;;;;;;;;;5076839;28;20420;-77
2022/07/12 09:55:42;;;;;;;3.40;3.10;;;;;;;;;;5077440;28;20407;-77
2022/07/12 09:58:09;;;;;;;4.33;3.83;;;;;;;;;;5075934;28;20895;-77
2022/07/12 10:00:37;;;;;;;3.78;3.30;;;;;;;;;;5074104;28;20426;-77
2022/07/12 10:03:04;;;;;;;3.58;3.28;;;;;;;;;;5074638;28;20793;-77
2022/07/12 10:05:30;;;;;;;3.38;2.90;;;;;;;;;;5075453;28;20433;-77
2022/07/12 10:07:57;;;;;;;4.00;3.00;;;;;;;;;;5076291;28;20414;-77
2022/07/12 10:10:24;;;;;;;3.55;3.25;;;;;;;;;;5076780;28;20421;-77
2022/07/12 10:12:52;;;;;;;5.00;3.05;;;;;;;;;;5075917;28;20478;-77
2022/07/12 10:15:18;;;;;;;3.70;3.40;;;;;;;;;;5074581;28;20423;-77
2022/07/12 10:17:53;;;;;;;4.43;3.43;;;;;;;;;;5076238;28;20484;-77
2022/07/12 10:20:22;;;;;;;4.50;3.00;;;;;;;;;;5078102;28;20446;-77
2022/07/12 10:22:48;;;;;;;3.50;3.17;;;;;;;;;;5076229;28;20481;-77
2022/07/12 10:25:31;;;;;;;3.67;2.90;;;;;;;;;;5077292;28;20859;-77
2022/07/12 10:27:59;;;;;;;3.30;3.00;;;;;;;;;;5076379;28;20422;-78
2022/07/12 10:30:25;;;;;;;3.80;3.50;;;;;;;;;;5074663;28;20478;-77
2022/07/12 10:32:56;;;;;;;3.50;3.20;;;;;;;;;;5077531;28;20419;-77
2022/07/12 10:35:23;;;;;;;3.08;2.75;;;;;;;;;;5075015;28;20450;-77
2022/07/12 10:38:08;;;;;;;4.57;3.90;;;;;;;;;;5076790;28;20428;-75
2022/07/12 10:40:35;;;;;;;3.65;3.13;;;;;;;;;;5075567;28;21010;-77
2022/07/12 10:43:14;;;;;;;3.10;2.90;;;;;;;;;;5075519;28;20414;-77
2022/07/12 10:45:42;;;;;;;3.03;2.60;;;;;;;;;;5076392;28;20449;-77
2022/07/12 10:48:19;;;;;;;3.10;2.80;;;;;;;;;;5073466;28;20432;-77
2022/07/12 10:50:58;;;;;;;3.10;2.80;;;;;;;;;;5077497;28;20425;-77
2022/07/12 10:53:26;;;;;;;3.25;3.00;;;;;;;;;;5077898;28;20963;-77
2022/07/12 10:56:13;;;;;;;4.00;2.92;;;;;;;;;;5079080;28;20804;-77
2022/07/12 10:58:41;;;;;;;4.25;3.85;;;;;;;;;;5080763;28;20415;-77
2022/07/12 11:01:08;;;;;;;4.15;3.75;;;;;;;;;;5077819;28;20416;-77
2022/07/12 11:03:40;;;;;;;3.90;2.95;;;;;;;;;;5078868;28;20411;-77
2022/07/12 11:06:06;;;;;;;3.30;3.00;;;;;;;;;;5079370;28;20539;-77
2022/07/12 11:08:34;;;;;;;3.50;3.20;;;;;;;;;;5079881;28;20417;-77
2022/07/12 11:11:00;;;;;;;3.00;2.70;;;;;;;;;;5079509;28;20430;-77
2022/07/12 11:13:27;;;;;;;3.70;3.40;;;;;;;;;;5079254;28;20426;-77
2022/07/12 11:15:56;;;;;;;4.70;4.07;;;;;;;;;;5079617;28;20411;-77
2022/07/12 11:18:29;;;;;;;3.67;3.38;;;;;;;;;;5077248;28;20423;-77
2022/07/12 11:20:58;;;;;;;5.30;3.83;;;;;;;;;;5080035;28;20783;-77
2022/07/12 11:23:26;;;;;;;3.47;3.17;;;;;;;;;;5079939;28;20419;-77
2022/07/12 11:25:54;;;;;;;3.30;3.00;;;;;;;;;;5077346;28;20912;-77
2022/07/12 11:28:20;;;;;;;3.30;3.00;;;;;;;;;;5079417;28;20419;-77
2022/07/12 11:30:49;;;;;;;3.55;2.85;;;;;;;;;;5079945;28;20417;-77
2022/07/12 11:33:15;;;;;;;3.20;2.88;;;;;;;;;;5077493;28;20929;-77
2022/07/12 11:35:44;;;;;;;3.80;3.10;;;;;;;;;;5079930;28;20401;-77
2022/07/12 11:38:11;;;;;;;4.70;3.08;;;;;;;;;;5077647;28;20429;-77
2022/07/12 11:40:38;;;;;;;4.50;3.50;;;;;;;;;;5076768;28;20499;-77
2022/07/12 11:43:05;;;;;;;5.18;4.00;;;;;;;;;;5078658;28;20489;-77
2022/07/12 11:45:32;;;;;;;4.20;3.25;;;;;;;;;;5079759;28;20419;-77
2022/07/12 11:47:59;;;;;;;4.60;3.00;;;;;;;;;;5074515;28;20425;-77
2022/07/12 11:50:26;;;;;;;4.20;3.10;;;;;;;;;;5078603;28;20996;-77
2022/07/12 11:52:52;;;;;;;3.45;3.15;;;;;;;;;;5079022;28;20436;-77
2022/07/12 11:55:20;;;;;;;3.65;3.35;;;;;;;;;;5079284;28;20409;-77
2022/07/12 11:57:46;;;;;;;3.80;3.50;;;;;;;;;;5078673;28;20412;-77
2022/07/12 12:00:14;;;;;;;3.03;2.72;;;;;;;;;;5077557;28;20429;-77
2022/07/12 12:02:40;;;;;;;3.07;2.80;;;;;;;;;;5077326;28;20483;-77
2022/07/12 12:05:07;;;;;;;3.20;2.70;;;;;;;;;;5077383;28;20415;-76
2022/07/12 12:07:33;;;;;;;3.35;3.05;;;;;;;;;;5076328;28;20416;-77
2022/07/12 12:10:00;;;;;;;3.00;2.53;;;;;;;;;;5078516;28;20412;-77
2022/07/12 12:12:28;;;;;;;3.10;2.80;;;;;;;;;;5079226;28;20406;-76
2022/07/12 12:14:54;;;;;;;3.13;2.80;;;;;;;;;;5076327;28;20441;-76
2022/07/12 12:17:21;;;;;;;2.50;2.30;;;;;;;;;;5077994;28;20416;-76
2022/07/12 12:19:47;;;;;;;2.55;2.10;;;;;;;;;;5077170;28;20434;-77
2022/07/12 12:22:27;;;;;;;2.90;2.20;;;;;;;;;;5075803;28;20439;-77
2022/07/12 12:25:00;;;;;;;2.10;1.90;;;;;;;;;;5077722;28;20909;-77
2022/07/12 12:27:28;;;;;;;2.53;2.00;;;;;;;;;;5077923;28;20881;-76
2022/07/12 12:29:54;;;;;;;2.15;1.80;;;;;;;;;;5091118;22;20438;-75
2022/07/12 12:32:20;;;;;;;1.88;1.42;;;;;;;;;;5059687;28;20413;-75
2022/07/12 12:35:01;;;;;;;2.10;1.90;;;;;;;;;;5059496;28;20428;-75
2022/07/12 12:37:28;;;;;;;2.58;2.00;;;;;;;;;;5058384;28;20773;-74
2022/07/12 12:39:54;;;;;;;2.13;1.80;;;;;;;;;;5056800;28;20426;-75
2022/07/12 12:42:24;;;;;;;1.88;1.50;;;;;;;;;;5057902;28;20409;-75
2022/07/12 12:44:52;;;;;;;1.52;1.42;;;;;;;;;;5057099;28;20967;-74
2022/07/12 12:47:34;;;;;;;1.25;1.10;;;;;;;;;;5057949;28;20434;-74
2022/07/12 12:50:01;;;;;;;2.80;1.40;;;;;;;;;;5054156;28;20468;-74
2022/07/12 12:52:28;;;;;;;2.15;1.52;;;;;;;;;;5058615;28;20417;-74
2022/07/12 12:54:55;;;;;;;2.15;1.60;;;;;;;;;;5056959;28;20429;-74
2022/07/12 12:57:24;;;;;;;2.85;1.75;;;;;;;;;;5056365;28;20505;-74
2022/07/12 12:59:51;;;;;;;1.60;1.50;;;;;;;;;;5058110;28;20431;-74
2022/07/12 13:02:18;;;;;;;2.00;1.80;;;;;;;;;;5058159;28;20918;-74
2022/07/12 13:04:45;;;;;;;4.70;1.20;;;;;;;;;;5056223;28;20487;-74
2022/07/12 13:07:11;;;;;;;0.90;0.80;;;;;;;;;;5056755;28;20502;-74
2022/07/12 13:09:37;;;;;;;1.40;1.00;;;;;;;;;;5058307;28;20426;-75
2022/07/12 13:12:05;;;;;;;1.20;0.80;;;;;;;;;;5055783;28;20430;-75
2022/07/12 13:14:31;;;;;;;2.10;1.10;;;;;;;;;;5057786;28;20494;-75
2022/07/12 13:16:58;;;;;;;1.10;0.82;;;;;;;;;;5056630;28;20460;-75
2022/07/12 13:19:25;;;;;;;1.30;1.10;;;;;;;;;;5055865;28;20432;-74
2022/07/12 13:21:51;;;;;;;1.08;0.98;;;;;;;;;;5057480;28;20423;-74
2022/07/12 13:24:18;;;;;;;1.00;0.90;;;;;;;;;;5057197;28;20417;-74
2022/07/12 13:26:44;;;;;;;1.38;1.00;;;;;;;;;;5056386;28;20429;-74
2022/07/12 13:29:10;;;;;;;1.80;0.90;;;;;;;;;;5054069;28;20483;-75
2022/07/12 13:31:37;;;;;;;1.70;1.00;;;;;;;;;;5057300;28;20784;-74
2022/07/12 13:34:05;;;;;;;1.30;1.00;;;;;;;;;;5055724;28;20496;-75
2022/07/12 13:36:32;;;;;;;2.42;1.10;;;;;;;;;;5057478;28;20421;-74
2022/07/12 13:40:10;;;;;;;2.00;1.00;;;;;;;;;;5057370;28;20418;-75
2022/07/12 13:41:45;;;;;;;1.20;1.10;;;;;;;;;;5058074;28;20444;-74
2022/07/12 13:44:11;;;;;;;1.40;0.90;;;;;;;;;;5055139;28;20931;-74
2022/07/12 13:46:37;;;;;;;2.00;1.20;;;;;;;;;;5056147;28;20442;-75
2022/07/12 13:49:05;;;;;;;1.25;1.15;;;;;;;;;;5053985;28;20436;-75
2022/07/12 13:51:31;;;;;;;1.30;0.80;;;;;;;;;;5055027;28;20971;-75
2022/07/12 13:53:58;;;;;;;0.90;0.82;;;;;;;;;;5056848;28;20426;-75
2022/07/12 13:56:24;;;;;;;2.10;1.05;;;;;;;;;;5052355;28;20770;-75
2022/07/12 13:58:50;;;;;;;1.30;1.00;;;;;;;;;;5055587;28;20417;-75
2022/07/12 14:01:17;;;;;;;1.48;0.80;;;;;;;;;;5052981;28;20438;-75
2022/07/12 14:03:43;;;;;;;1.20;0.90;;;;;;;;;;5056902;28;20500;-75
2022/07/12 14:06:11;;;;;;;0.70;0.70;;;;;;;;;;5054843;28;20913;-75
2022/07/12 14:08:37;;;;;;;1.17;0.60;;;;;;;;;;5056717;28;20426;-75
2022/07/12 14:11:03;;;;;;;1.50;0.70;;;;;;;;;;5055163;28;20438;-75
2022/07/12 14:13:30;;;;;;;1.50;0.80;;;;;;;;;;5056598;28;20420;-75
2022/07/12 14:15:56;;;;;;;2.00;0.80;;;;;;;;;;5057213;28;20420;-75
2022/07/12 14:18:22;;;;;;;1.17;0.80;;;;;;;;;;5056783;28;20500;-75
2022/07/12 14:20:50;;;;;;;2.00;0.70;;;;;;;;;;5055961;28;20465;-75
2022/07/12 14:23:18;;;;;;;2.00;0.90;;;;;;;;;;5055087;28;20436;-75
2022/07/12 14:25:44;;;;;;;1.08;0.88;;;;;;;;;;5057316;28;20979;-75
2022/07/12 14:28:11;;;;;;;1.48;0.80;;;;;;;;;;5056581;28;20448;-75
2022/07/12 14:30:37;;;;;;;0.75;0.68;;;;;;;;;;5061125;28;20415;-75
2022/07/12 14:33:03;;;;;;;1.00;0.70;;;;;;;;;;5060487;28;20427;-75
2022/07/12 14:35:29;;;;;;;1.20;0.60;;;;;;;;;;5058863;28;20438;-74
2022/07/12 14:37:56;;;;;;;0.80;0.60;;;;;;;;;;5060059;28;20498;-75
2022/07/12 14:40:23;;;;;;;0.60;0.60;;;;;;;;;;5058728;28;20833;-75
2022/07/12 14:42:50;;;;;;;1.23;0.80;;;;;;;;;;5060554;28;20756;-75
2022/07/12 14:45:16;;;;;;;1.10;0.88;;;;;;;;;;5059830;28;20448;-75
2022/07/12 14:47:42;;;;;;;0.67;0.67;;;;;;;;;;5059941;28;20400;-75
2022/07/12 14:50:09;;;;;;;0.90;0.80;;;;;;;;;;5058886;28;20432;-75
2022/07/12 14:52:35;;;;;;;1.00;0.80;;;;;;;;;;5057400;28;20413;-75
2022/07/12 14:55:02;;;;;;;1.10;0.60;;;;;;;;;;5053451;28;20464;-75
2022/07/12 14:57:29;;;;;;;0.80;0.80;;;;;;;;;;5046289;28;20408;-75
2022/07/12 14:59:56;;;;;;;2.80;0.63;;;;;;;;;;5054247;28;20433;-75